Time;durP1;ratioP1;P1;durP2;ratioP2;P2;SDS_P1;SDS_P2;PMS_P1;PMS_P2;Temp;Humidity;BMP_temperature;BMP_pressure;BME280_temperature;BME280_humidity;BME280_pressure;Samples;Min_cycle;Max_cycle;Signal;HPM_P1;HPM_P2
2021/09/19 00:02:00;;;;;;;0.40;0.30;;;26.30;55.10;;;;;;5056695;28;20131;-47
2021/09/19 00:04:27;;;;;;;4.07;0.30;;;26.30;55.10;;;;;;5060028;28;20417;-48
2021/09/19 00:06:54;;;;;;;0.60;0.50;;;26.30;55.20;;;;;;5051905;28;20040;-47
2021/09/19 00:09:22;;;;;;;9.48;0.50;;;26.30;55.20;;;;;;5049093;28;20120;-47
2021/09/19 00:11:49;;;;;;;0.98;0.82;;;26.30;55.80;;;;;;5054472;28;20120;-50
2021/09/19 00:14:17;;;;;;;0.73;0.57;;;26.30;55.20;;;;;;5048142;28;20037;-50
2021/09/19 00:16:44;;;;;;;1.30;0.43;;;26.30;55.30;;;;;;5052309;28;20505;-52
2021/09/19 00:19:13;;;;;;;1.90;0.57;;;26.30;55.30;;;;;;5050858;28;20104;-49
2021/09/19 00:21:40;;;;;;;0.45;0.20;;;26.30;55.30;;;;;;5050036;28;20139;-52
2021/09/19 00:24:08;;;;;;;0.63;0.30;;;26.30;55.30;;;;;;5051031;28;20043;-47
2021/09/19 00:26:35;;;;;;;0.50;0.50;;;26.30;55.30;;;;;;5066251;28;20135;-48
2021/09/19 00:29:03;;;;;;;0.50;0.35;;;26.30;55.30;;;;;;5055740;28;20041;-47
2021/09/19 00:31:30;;;;;;;0.85;0.40;;;26.30;55.30;;;;;;5049603;28;20032;-47
2021/09/19 00:33:57;;;;;;;0.40;0.40;;;26.30;55.30;;;;;;5051602;28;20041;-49
2021/09/19 00:36:25;;;;;;;0.88;0.88;;;26.30;55.30;;;;;;5048558;28;20137;-50
2021/09/19 00:38:52;;;;;;;0.60;0.38;;;26.30;55.20;;;;;;5046398;28;20099;-48
2021/09/19 00:41:19;;;;;;;0.40;0.40;;;26.30;55.20;;;;;;5052149;28;20128;-48
2021/09/19 00:43:47;;;;;;;0.73;0.30;;;26.30;55.80;;;;;;5054365;28;20064;-50
2021/09/19 00:46:14;;;;;;;0.55;0.55;;;26.30;55.20;;;;;;5062515;28;20050;-47
2021/09/19 00:48:41;;;;;;;0.20;0.20;;;26.30;55.20;;;;;;5049605;28;20041;-48
2021/09/19 00:51:08;;;;;;;0.52;0.40;;;26.30;55.20;;;;;;5050480;28;20123;-47
2021/09/19 00:53:38;;;;;;;0.45;0.45;;;26.30;55.20;;;;;;5051163;28;20561;-48
2021/09/19 00:56:07;;;;;;;2.05;0.30;;;26.30;55.30;;;;;;5049288;28;20420;-50
2021/09/19 00:58:35;;;;;;;0.82;0.30;;;26.30;55.30;;;;;;5047528;28;20530;-46
2021/09/19 01:01:02;;;;;;;0.45;0.45;;;26.30;55.30;;;;;;5048035;28;20119;-47
2021/09/19 01:03:30;;;;;;;0.98;0.45;;;26.30;54.70;;;;;;5044053;28;20620;-48
2021/09/19 01:05:57;;;;;;;5.40;0.73;;;26.30;53.90;;;;;;5051008;28;20927;-46
2021/09/19 01:08:25;;;;;;;0.65;0.38;;;26.20;53.70;;;;;;5048198;28;20045;-46
2021/09/19 01:10:53;;;;;;;0.32;0.32;;;26.10;53.50;;;;;;5048527;28;20041;-47
2021/09/19 01:13:21;;;;;;;0.40;0.35;;;26.00;53.60;;;;;;5049597;28;20044;-48
2021/09/19 01:15:49;;;;;;;1.00;0.70;;;25.80;53.60;;;;;;5034001;28;20406;-51
2021/09/19 01:18:18;;;;;;;1.38;0.20;;;25.70;53.70;;;;;;5063532;28;20044;-50
2021/09/19 01:20:47;;;;;;;0.60;0.30;;;25.60;53.90;;;;;;5052811;28;20067;-48
2021/09/19 01:23:15;;;;;;;0.40;0.25;;;25.50;54.00;;;;;;5049401;28;20043;-47
2021/09/19 01:25:45;;;;;;;1.42;0.88;;;25.40;54.20;;;;;;5054201;28;20072;-48
2021/09/19 01:28:14;;;;;;;0.40;0.40;;;25.30;54.50;;;;;;5058410;28;20501;-51
2021/09/19 01:30:41;;;;;;;0.77;0.77;;;25.30;54.70;;;;;;5062759;28;20438;-48
2021/09/19 01:33:08;;;;;;;1.77;0.65;;;25.20;54.90;;;;;;5049829;28;20116;-48
2021/09/19 01:35:36;;;;;;;0.75;0.45;;;25.10;55.10;;;;;;5052017;28;20045;-50
2021/09/19 01:38:04;;;;;;;0.82;0.40;;;25.00;55.30;;;;;;5049049;28;20398;-48
2021/09/19 01:40:31;;;;;;;2.75;0.82;;;24.90;55.50;;;;;;5050885;28;20047;-48
2021/09/19 01:43:00;;;;;;;1.15;1.15;;;24.90;55.70;;;;;;5057963;28;20139;-47
2021/09/19 01:45:29;;;;;;;1.63;1.52;;;24.80;56.00;;;;;;5062797;28;20098;-47
2021/09/19 01:47:56;;;;;;;2.67;0.60;;;24.70;56.10;;;;;;5052266;28;20040;-47
2021/09/19 01:50:25;;;;;;;1.88;1.15;;;24.60;56.30;;;;;;5050644;28;20037;-46
2021/09/19 01:52:53;;;;;;;1.20;0.68;;;24.60;56.50;;;;;;5050679;28;20041;-47
2021/09/19 01:55:21;;;;;;;1.75;0.77;;;24.60;56.80;;;;;;5053024;28;20079;-47
2021/09/19 01:57:48;;;;;;;0.82;0.82;;;24.50;56.90;;;;;;5058442;28;20037;-49
2021/09/19 02:00:17;;;;;;;1.65;1.55;;;24.50;57.10;;;;;;5063147;28;20041;-47
2021/09/19 02:02:44;;;;;;;1.05;0.93;;;24.40;57.30;;;;;;5050610;28;20045;-48
2021/09/19 02:05:11;;;;;;;0.93;0.93;;;24.40;57.40;;;;;;5045049;28;20090;-48
2021/09/19 02:07:40;;;;;;;2.17;1.13;;;24.40;57.60;;;;;;5051199;28;20513;-48
2021/09/19 02:10:10;;;;;;;3.15;1.42;;;24.30;57.70;;;;;;5061127;28;20043;-49
2021/09/19 02:12:38;;;;;;;2.78;0.95;;;24.30;57.90;;;;;;5047013;28;20563;-47
2021/09/19 02:15:07;;;;;;;3.45;1.02;;;24.20;58.00;;;;;;5050244;28;20041;-47
2021/09/19 02:17:36;;;;;;;3.22;0.85;;;24.20;58.10;;;;;;5051959;28;20049;-47
2021/09/19 02:20:05;;;;;;;1.38;0.95;;;24.10;58.20;;;;;;5050744;28;20526;-48
2021/09/19 02:22:32;;;;;;;3.20;0.90;;;24.10;58.30;;;;;;5050678;28;20083;-50
2021/09/19 02:24:59;;;;;;;2.50;0.85;;;24.10;58.40;;;;;;5049779;28;20037;-48
2021/09/19 02:27:26;;;;;;;1.63;0.52;;;24.00;58.50;;;;;;5062006;28;20041;-51
2021/09/19 02:29:53;;;;;;;2.83;1.40;;;24.00;58.60;;;;;;5064798;28;20040;-46
2021/09/19 02:32:20;;;;;;;2.17;1.27;;;24.00;58.70;;;;;;5058648;28;20044;-51
2021/09/19 02:34:49;;;;;;;6.38;1.08;;;23.90;58.70;;;;;;5056953;28;20052;-48
2021/09/19 02:37:16;;;;;;;4.63;1.33;;;23.90;58.80;;;;;;5054813;28;20053;-48
2021/09/19 02:39:43;;;;;;;1.40;1.38;;;23.90;58.90;;;;;;5046083;28;20052;-47
2021/09/19 02:42:10;;;;;;;1.00;0.75;;;23.80;59.00;;;;;;5062691;28;20052;-50
2021/09/19 02:44:37;;;;;;;1.45;0.70;;;23.80;59.10;;;;;;5060465;28;20044;-47
2021/09/19 02:47:05;;;;;;;1.30;0.88;;;23.80;59.30;;;;;;5057132;28;20139;-51
2021/09/19 02:49:32;;;;;;;1.15;1.05;;;23.70;59.30;;;;;;5050984;28;20032;-48
2021/09/19 02:52:00;;;;;;;3.35;1.15;;;23.70;59.40;;;;;;5058163;28;20037;-49
2021/09/19 02:54:27;;;;;;;4.68;1.02;;;23.70;59.50;;;;;;5046273;28;20044;-48
2021/09/19 02:56:54;;;;;;;1.90;0.82;;;23.70;59.60;;;;;;5069228;28;20136;-47
2021/09/19 02:59:22;;;;;;;4.18;1.30;;;23.70;59.70;;;;;;5060994;28;20090;-46
2021/09/19 03:01:49;;;;;;;1.23;1.17;;;23.60;59.70;;;;;;5060417;28;20047;-49
2021/09/19 03:04:16;;;;;;;0.95;0.70;;;23.60;59.70;;;;;;5059819;28;20501;-47
2021/09/19 03:06:43;;;;;;;1.27;0.82;;;23.60;59.80;;;;;;5064210;28;20043;-48
2021/09/19 03:09:11;;;;;;;1.23;0.65;;;23.50;59.90;;;;;;5066533;28;20040;-49
2021/09/19 03:11:38;;;;;;;2.60;1.10;;;23.50;60.00;;;;;;5064502;28;20148;-47
2021/09/19 03:14:05;;;;;;;1.42;1.23;;;23.50;60.10;;;;;;5056892;28;20041;-50
2021/09/19 03:16:32;;;;;;;1.05;0.63;;;23.50;60.20;;;;;;5053267;28;20036;-50
2021/09/19 03:18:59;;;;;;;2.20;1.20;;;23.50;60.30;;;;;;5060378;28;20033;-48
2021/09/19 03:21:26;;;;;;;1.63;0.32;;;23.40;60.20;;;;;;5065913;28;20191;-48
2021/09/19 03:23:53;;;;;;;1.50;1.40;;;23.40;60.30;;;;;;5060930;28;20033;-48
2021/09/19 03:26:22;;;;;;;1.27;1.27;;;23.40;60.40;;;;;;5059987;28;20044;-47
2021/09/19 03:28:49;;;;;;;1.45;1.35;;;23.40;60.50;;;;;;5058165;28;20412;-47
2021/09/19 03:31:16;;;;;;;9.45;2.63;;;23.40;60.50;;;;;;5050938;28;20091;-48
2021/09/19 03:33:43;;;;;;;1.83;1.23;;;23.40;60.60;;;;;;5063617;28;20037;-48
2021/09/19 03:36:10;;;;;;;2.65;0.55;;;23.40;60.60;;;;;;5064675;28;20127;-51
2021/09/19 03:38:37;;;;;;;3.90;1.23;;;23.30;60.60;;;;;;5057177;28;20041;-51
2021/09/19 03:41:04;;;;;;;1.83;1.17;;;23.30;60.70;;;;;;5050704;28;20153;-48
2021/09/19 03:43:32;;;;;;;1.92;1.48;;;23.30;60.70;;;;;;5052980;28;20111;-49
2021/09/19 03:45:59;;;;;;;1.95;1.40;;;23.20;60.80;;;;;;5061153;28;20052;-47
2021/09/19 03:48:27;;;;;;;1.80;1.58;;;23.30;60.90;;;;;;5064513;28;20558;-49
2021/09/19 03:50:54;;;;;;;2.25;1.48;;;23.30;60.90;;;;;;5065853;28;20947;-50
2021/09/19 03:53:21;;;;;;;2.90;1.10;;;23.20;60.90;;;;;;5053921;28;20513;-47
2021/09/19 03:55:48;;;;;;;1.58;1.23;;;23.20;61.00;;;;;;5054812;28;20378;-52
2021/09/19 03:58:15;;;;;;;1.13;1.02;;;23.20;61.00;;;;;;5060350;28;20072;-52
2021/09/19 04:00:43;;;;;;;1.20;1.00;;;23.20;61.00;;;;;;5063524;28;20048;-50
2021/09/19 04:03:10;;;;;;;1.70;1.40;;;23.20;61.10;;;;;;5060921;28;20037;-50
2021/09/19 04:05:38;;;;;;;1.17;1.08;;;23.20;61.20;;;;;;5060655;28;20536;-51
2021/09/19 04:08:06;;;;;;;4.03;1.42;;;23.20;61.20;;;;;;5052957;28;20120;-52
2021/09/19 04:10:34;;;;;;;1.35;1.05;;;23.10;61.30;;;;;;5050935;28;20112;-53
2021/09/19 04:13:01;;;;;;;1.20;1.17;;;23.20;61.20;;;;;;5055395;28;20064;-51
2021/09/19 04:15:28;;;;;;;2.80;1.35;;;23.10;61.20;;;;;;5064406;28;20051;-51
2021/09/19 04:17:56;;;;;;;1.33;1.23;;;23.10;61.20;;;;;;5064069;28;20062;-51
2021/09/19 04:20:23;;;;;;;2.05;1.08;;;23.10;61.20;;;;;;5056314;28;20042;-49
2021/09/19 04:22:50;;;;;;;1.58;1.27;;;23.00;61.10;;;;;;5050693;28;20047;-50
2021/09/19 04:25:17;;;;;;;2.28;1.17;;;23.00;61.20;;;;;;5050053;28;20052;-47
2021/09/19 04:27:44;;;;;;;4.93;1.35;;;23.00;61.20;;;;;;5048395;28;20040;-47
2021/09/19 04:30:13;;;;;;;1.80;1.70;;;23.00;61.20;;;;;;5064907;28;20068;-48
2021/09/19 04:32:40;;;;;;;1.70;1.58;;;23.00;61.20;;;;;;5051894;28;20579;-48
2021/09/19 04:35:09;;;;;;;4.90;1.55;;;23.00;61.20;;;;;;5055588;28;20040;-48
2021/09/19 04:37:36;;;;;;;3.28;1.83;;;23.00;61.20;;;;;;5053035;28;20131;-49
2021/09/19 04:40:04;;;;;;;0.82;0.82;;;23.00;61.20;;;;;;5064719;28;20045;-50
2021/09/19 04:42:32;;;;;;;3.40;1.58;;;23.00;61.20;;;;;;5064322;28;20039;-46
2021/09/19 04:44:59;;;;;;;1.63;1.10;;;23.00;61.20;;;;;;5053614;28;20076;-51
2021/09/19 04:47:26;;;;;;;4.28;1.90;;;22.90;61.20;;;;;;5050950;28;20041;-47
2021/09/19 04:49:53;;;;;;;1.42;1.42;;;22.90;61.10;;;;;;5047888;28;20457;-48
2021/09/19 04:52:22;;;;;;;2.17;1.00;;;22.90;61.10;;;;;;5049900;28;20040;-47
2021/09/19 04:54:49;;;;;;;1.42;1.35;;;22.90;61.10;;;;;;5049888;28;20115;-48
2021/09/19 04:57:16;;;;;;;3.13;1.42;;;22.90;61.10;;;;;;5056123;28;20453;-50
2021/09/19 04:59:43;;;;;;;3.22;1.50;;;22.90;61.00;;;;;;5062752;28;20141;-48
2021/09/19 05:02:10;;;;;;;2.22;0.82;;;22.90;60.80;;;;;;5061127;28;20036;-52
2021/09/19 05:04:37;;;;;;;1.60;1.17;;;22.80;60.60;;;;;;5058824;28;20116;-50
2021/09/19 05:07:04;;;;;;;1.05;1.00;;;22.80;60.40;;;;;;5047445;28;20049;-48
2021/09/19 05:09:32;;;;;;;0.98;0.98;;;22.80;60.20;;;;;;5050278;28;20044;-48
2021/09/19 05:11:59;;;;;;;2.90;0.88;;;22.80;60.00;;;;;;5047852;28;20536;-47
2021/09/19 05:14:26;;;;;;;1.33;1.25;;;22.80;59.80;;;;;;5049999;28;20533;-48
2021/09/19 05:16:53;;;;;;;1.40;1.40;;;22.80;59.50;;;;;;5049191;28;20037;-47
2021/09/19 05:19:20;;;;;;;2.25;0.80;;;22.70;59.10;;;;;;5047704;28;20124;-49
2021/09/19 05:21:47;;;;;;;1.40;0.57;;;22.70;58.90;;;;;;5049177;28;20036;-48
2021/09/19 05:24:14;;;;;;;0.90;0.85;;;22.70;58.70;;;;;;5047349;28;20064;-51
2021/09/19 05:26:43;;;;;;;1.90;1.25;;;22.70;58.50;;;;;;5061520;28;20036;-48
2021/09/19 05:29:10;;;;;;;0.80;0.80;;;22.70;58.30;;;;;;5052656;28;20037;-48
2021/09/19 05:31:37;;;;;;;1.33;1.02;;;22.60;58.20;;;;;;5049106;28;20065;-52
2021/09/19 05:34:05;;;;;;;1.63;1.00;;;22.60;58.60;;;;;;5046432;28;20122;-48
2021/09/19 05:36:32;;;;;;;3.03;1.85;;;22.60;57.90;;;;;;5044099;28;20599;-48
2021/09/19 05:38:59;;;;;;;5.68;0.85;;;22.60;57.90;;;;;;5048533;28;20418;-48
2021/09/19 05:41:26;;;;;;;1.30;0.85;;;22.60;57.80;;;;;;5047187;28;20037;-47
2021/09/19 05:43:55;;;;;;;1.60;1.17;;;22.60;57.60;;;;;;5049320;28;20040;-49
2021/09/19 05:46:22;;;;;;;0.88;0.88;;;22.60;57.40;;;;;;5048973;28;20088;-48
2021/09/19 05:48:49;;;;;;;1.67;0.95;;;22.50;57.20;;;;;;5039252;28;20103;-49
2021/09/19 05:51:16;;;;;;;1.95;1.27;;;22.50;57.20;;;;;;5054617;28;20509;-49
2021/09/19 05:53:43;;;;;;;0.82;0.82;;;22.50;57.10;;;;;;5046798;28;20047;-48
2021/09/19 05:56:11;;;;;;;1.23;1.17;;;22.50;57.20;;;;;;5048609;28;20041;-46
2021/09/19 05:58:38;;;;;;;3.20;0.82;;;22.50;57.10;;;;;;5047999;28;20059;-47
2021/09/19 06:01:07;;;;;;;1.48;0.90;;;22.50;57.10;;;;;;5045577;28;20051;-53
2021/09/19 06:03:34;;;;;;;1.65;1.00;;;22.50;57.10;;;;;;5037716;28;20956;-53
2021/09/19 06:06:01;;;;;;;0.98;0.98;;;22.50;57.20;;;;;;5046640;28;20083;-49
2021/09/19 06:08:28;;;;;;;1.15;1.15;;;22.40;57.20;;;;;;5049471;28;20047;-49
2021/09/19 06:10:55;;;;;;;3.83;0.75;;;22.50;57.30;;;;;;5048543;28;20063;-49
2021/09/19 06:13:22;;;;;;;3.22;0.57;;;22.40;57.30;;;;;;5048967;28;20047;-51
2021/09/19 06:15:49;;;;;;;3.20;1.23;;;22.50;58.10;;;;;;5056873;28;20559;-50
2021/09/19 06:18:17;;;;;;;2.25;1.48;;;22.50;58.60;;;;;;5062260;28;20055;-48
2021/09/19 06:20:44;;;;;;;8.02;0.98;;;22.60;58.90;;;;;;5062067;28;20586;-48
2021/09/19 06:23:11;;;;;;;4.53;1.00;;;22.70;58.90;;;;;;5056813;28;20046;-50
2021/09/19 06:25:38;;;;;;;1.60;0.98;;;22.80;58.80;;;;;;5056384;28;20074;-53
2021/09/19 06:28:05;;;;;;;1.85;1.13;;;22.90;58.70;;;;;;5051094;28;20048;-49
2021/09/19 06:30:33;;;;;;;3.55;0.70;;;23.00;58.60;;;;;;5057641;28;20216;-47
2021/09/19 06:33:00;;;;;;;5.03;0.50;;;23.10;58.50;;;;;;5050384;28;20044;-49
2021/09/19 06:35:29;;;;;;;3.70;0.70;;;23.10;58.40;;;;;;5045132;28;20048;-49
2021/09/19 06:37:56;;;;;;;2.33;1.23;;;23.20;58.20;;;;;;5053619;28;20063;-47
2021/09/19 06:40:23;;;;;;;5.43;0.57;;;23.30;58.10;;;;;;5057049;28;20670;-51
2021/09/19 06:42:50;;;;;;;2.63;0.40;;;23.40;58.00;;;;;;5052887;28;20413;-51
2021/09/19 06:45:18;;;;;;;1.17;1.02;;;23.40;57.90;;;;;;5062423;28;20048;-52
2021/09/19 06:47:45;;;;;;;0.73;0.52;;;23.50;57.80;;;;;;5041902;28;20133;-50
2021/09/19 06:50:13;;;;;;;1.75;0.73;;;23.50;57.70;;;;;;5054059;28;20037;-53
2021/09/19 06:52:42;;;;;;;1.30;0.40;;;23.60;57.60;;;;;;5057379;28;20119;-50
2021/09/19 06:55:10;;;;;;;1.75;0.65;;;23.70;57.50;;;;;;5056663;28;20041;-51
2021/09/19 06:57:37;;;;;;;0.95;0.40;;;23.70;57.30;;;;;;5061596;28;20484;-48
2021/09/19 07:00:07;;;;;;;0.93;0.93;;;23.80;57.20;;;;;;5049624;28;20045;-52
2021/09/19 07:02:34;;;;;;;2.00;0.50;;;23.90;57.20;;;;;;5051662;28;20076;-49
2021/09/19 07:05:01;;;;;;;0.63;0.45;;;23.90;57.00;;;;;;5054048;28;20037;-51
2021/09/19 07:07:28;;;;;;;3.78;0.50;;;23.90;56.90;;;;;;5053754;28;20045;-49
2021/09/19 07:09:57;;;;;;;2.95;0.45;;;24.00;56.80;;;;;;5045980;28;20041;-50
2021/09/19 07:12:24;;;;;;;1.58;0.40;;;24.00;56.70;;;;;;5062726;28;20048;-50
2021/09/19 07:14:51;;;;;;;0.60;0.30;;;24.10;56.60;;;;;;5061933;28;20048;-52
2021/09/19 07:17:18;;;;;;;0.70;0.40;;;24.10;56.40;;;;;;5057285;28;20078;-51
2021/09/19 07:19:45;;;;;;;1.10;0.60;;;24.20;56.40;;;;;;5057032;28;20365;-50
2021/09/19 07:22:12;;;;;;;0.47;0.45;;;24.20;56.30;;;;;;5057630;28;20043;-48
2021/09/19 07:24:39;;;;;;;0.32;0.30;;;24.30;56.20;;;;;;5059610;28;20124;-49
2021/09/19 07:27:08;;;;;;;1.58;0.30;;;24.30;56.10;;;;;;5065361;28;20055;-46
2021/09/19 07:29:36;;;;;;;1.27;0.50;;;24.30;56.00;;;;;;5059797;28;20045;-46
2021/09/19 07:32:07;;;;;;;0.93;0.40;;;24.40;55.90;;;;;;5057580;28;20134;-48
2021/09/19 07:34:34;;;;;;;1.77;0.60;;;24.40;55.80;;;;;;5054886;28;20049;-48
2021/09/19 07:37:03;;;;;;;1.38;0.50;;;24.40;55.70;;;;;;5048040;28;20036;-48
2021/09/19 07:39:30;;;;;;;0.95;0.38;;;24.50;55.60;;;;;;5030936;28;20041;-52
2021/09/19 07:41:58;;;;;;;1.42;0.32;;;24.50;55.60;;;;;;5060108;28;20068;-51
2021/09/19 07:44:27;;;;;;;0.50;0.50;;;24.50;55.50;;;;;;5061085;28;20057;-51
2021/09/19 07:46:55;;;;;;;0.40;0.40;;;24.60;55.40;;;;;;5055244;28;20082;-49
2021/09/19 07:49:23;;;;;;;0.20;0.20;;;24.60;55.30;;;;;;5053811;28;20032;-53
2021/09/19 07:51:50;;;;;;;0.95;0.82;;;24.60;55.20;;;;;;5049056;28;20109;-51
2021/09/19 07:54:19;;;;;;;0.45;0.25;;;24.60;55.10;;;;;;5049290;28;20059;-51
2021/09/19 07:56:46;;;;;;;1.00;0.30;;;24.70;55.10;;;;;;5064592;28;20127;-50
2021/09/19 07:59:13;;;;;;;1.00;0.38;;;24.70;55.00;;;;;;5050857;28;20055;-51
2021/09/19 08:01:41;;;;;;;2.10;0.68;;;24.70;54.90;;;;;;5054345;28;20124;-50
2021/09/19 08:04:08;;;;;;;0.70;0.40;;;24.70;54.80;;;;;;5061678;28;20413;-49
2021/09/19 08:06:35;;;;;;;0.40;0.22;;;24.80;55.40;;;;;;5048812;28;25522;-51
2021/09/19 08:09:02;;;;;;;0.68;0.40;;;24.80;54.70;;;;;;5065841;28;20123;-48
2021/09/19 08:11:30;;;;;;;1.20;0.43;;;24.80;54.60;;;;;;5061673;28;20413;-50
2021/09/19 08:14:05;;;;;;;2.45;0.88;;;24.90;54.50;;;;;;5052818;28;20045;-50
2021/09/19 08:16:33;;;;;;;0.30;0.30;;;24.90;54.50;;;;;;5052973;28;20044;-48
2021/09/19 08:19:01;;;;;;;1.58;0.43;;;24.90;54.40;;;;;;5041033;28;20059;-51
2021/09/19 08:21:28;;;;;;;1.13;0.30;;;24.90;54.30;;;;;;5048597;28;20041;-49
2021/09/19 08:23:55;;;;;;;2.13;0.47;;;24.90;54.20;;;;;;5054553;28;20041;-52
2021/09/19 08:26:23;;;;;;;0.32;0.20;;;25.00;54.20;;;;;;5064011;28;20106;-47
2021/09/19 08:28:50;;;;;;;1.02;0.20;;;25.00;54.10;;;;;;5054147;28;20033;-51
2021/09/19 08:31:17;;;;;;;0.20;0.20;;;25.00;54.00;;;;;;5050340;28;20033;-48
2021/09/19 08:33:46;;;;;;;0.45;0.40;;;25.10;54.00;;;;;;5056858;28;20051;-47
2021/09/19 08:36:14;;;;;;;0.80;0.20;;;25.10;54.00;;;;;;5051004;28;20509;-47
2021/09/19 08:38:41;;;;;;;0.50;0.50;;;25.10;53.90;;;;;;5063143;28;20090;-48
2021/09/19 08:41:08;;;;;;;1.40;0.40;;;25.10;53.90;;;;;;5054854;28;20128;-49
2021/09/19 08:43:36;;;;;;;0.30;0.30;;;25.20;53.90;;;;;;5052851;28;20041;-49
2021/09/19 08:46:03;;;;;;;0.80;0.45;;;25.20;53.80;;;;;;5048380;28;20501;-52
2021/09/19 08:48:32;;;;;;;0.57;0.50;;;25.20;53.70;;;;;;5044202;28;20154;-54
2021/09/19 08:50:59;;;;;;;2.97;0.65;;;25.20;53.70;;;;;;5061251;28;20106;-51
2021/09/19 08:53:28;;;;;;;1.10;0.50;;;25.20;53.60;;;;;;5059899;28;20052;-52
2021/09/19 08:55:55;;;;;;;0.30;0.30;;;25.30;53.60;;;;;;5056235;28;20045;-53
2021/09/19 08:58:23;;;;;;;0.60;0.52;;;25.30;53.60;;;;;;5052244;28;20041;-49
2021/09/19 09:00:50;;;;;;;1.95;0.60;;;25.30;53.50;;;;;;5048399;28;20128;-50
2021/09/19 09:03:19;;;;;;;0.40;0.20;;;25.30;53.40;;;;;;5053286;28;20041;-50
2021/09/19 09:05:54;;;;;;;2.47;0.32;;;25.30;53.40;;;;;;5053640;28;20441;-51
2021/09/19 09:08:22;;;;;;;0.30;0.20;;;25.30;53.30;;;;;;5048052;28;20053;-53
2021/09/19 09:10:52;;;;;;;0.32;0.30;;;25.30;53.30;;;;;;5052382;28;20037;-52
2021/09/19 09:13:21;;;;;;;1.27;0.30;;;25.30;53.30;;;;;;5050598;28;20125;-53
2021/09/19 09:15:51;;;;;;;0.98;0.88;;;25.40;53.30;;;;;;5061090;28;20509;-53
2021/09/19 09:18:30;;;;;;;0.45;0.30;;;25.40;53.20;;;;;;5047756;28;20052;-53
2021/09/19 09:20:59;;;;;;;0.40;0.40;;;25.40;53.10;;;;;;5048958;28;20075;-49
2021/09/19 09:23:32;;;;;;;0.40;0.40;;;25.40;53.10;;;;;;5052492;28;20405;-51
2021/09/19 09:26:18;;;;;;;0.77;0.40;;;25.50;53.10;;;;;;5058340;28;20476;-50
2021/09/19 09:28:49;;;;;;;0.63;0.63;;;25.50;53.00;;;;;;5053637;28;20095;-51
2021/09/19 09:31:22;;;;;;;0.82;0.20;;;25.50;53.00;;;;;;5052196;28;20112;-48
2021/09/19 09:34:01;;;;;;;0.30;0.30;;;25.50;52.90;;;;;;5047095;28;20037;-50
2021/09/19 09:36:41;;;;;;;3.50;0.30;;;25.60;52.90;;;;;;5063925;28;20144;-51
2021/09/19 09:39:26;;;;;;;0.60;0.50;;;25.60;52.90;;;;;;5063273;28;20106;-51
2021/09/19 09:41:56;;;;;;;0.70;0.70;;;25.60;52.80;;;;;;5052381;28;20083;-52
2021/09/19 09:44:36;;;;;;;1.42;0.40;;;25.60;52.80;;;;;;5058569;28;20041;-51
2021/09/19 09:47:06;;;;;;;1.33;0.40;;;25.70;52.80;;;;;;5050173;28;20122;-49
2021/09/19 09:49:52;;;;;;;0.35;0.30;;;25.70;52.80;;;;;;5051216;28;20060;-48
2021/09/19 09:52:22;;;;;;;0.40;0.40;;;25.70;52.70;;;;;;5049053;28;20132;-49
2021/09/19 09:54:51;;;;;;;0.30;0.30;;;25.70;52.70;;;;;;5060785;28;20088;-52
2021/09/19 09:58:01;;;;;;;1.65;0.63;;;25.70;52.60;;;;;;5060964;28;20075;-49
2021/09/19 10:00:28;;;;;;;0.30;0.25;;;25.70;52.50;;;;;;5020633;28;20493;-49
2021/09/19 10:02:55;;;;;;;0.45;0.20;;;25.70;52.50;;;;;;5021196;28;20069;-50
2021/09/19 10:05:22;;;;;;;0.50;0.50;;;25.70;52.40;;;;;;5009340;28;20100;-48
2021/09/19 10:07:51;;;;;;;2.03;1.00;;;25.70;52.40;;;;;;5009031;28;20042;-49
2021/09/19 10:10:20;;;;;;;0.30;0.30;;;25.80;52.40;;;;;;5008948;28;20170;-47
2021/09/19 10:12:49;;;;;;;1.15;0.50;;;25.80;52.30;;;;;;5005101;28;20050;-49
2021/09/19 10:15:18;;;;;;;0.75;0.38;;;25.80;52.30;;;;;;5008779;28;20050;-50
2021/09/19 10:17:46;;;;;;;0.30;0.30;;;25.80;52.20;;;;;;5004324;28;20045;-48
2021/09/19 10:20:15;;;;;;;0.70;0.40;;;25.80;52.20;;;;;;5008826;28;20537;-52
2021/09/19 10:22:48;;;;;;;0.40;0.30;;;25.90;52.20;;;;;;5007055;28;20053;-47
2021/09/19 10:25:36;;;;;;;0.40;0.30;;;25.90;52.10;;;;;;5010104;28;20580;-52
2021/09/19 10:28:21;;;;;;;0.73;0.40;;;25.90;52.00;;;;;;5013815;28;20136;-50
2021/09/19 10:31:31;;;;;;;0.90;0.40;;;25.90;52.00;;;;;;4993192;28;20978;-49
2021/09/19 10:34:02;;;;;;;0.28;0.28;;;26.00;52.00;;;;;;4968943;28;20462;-48
2021/09/19 10:36:35;;;;;;;0.40;0.20;;;25.90;52.00;;;;;;4992274;28;20042;-50
2021/09/19 10:39:12;;;;;;;1.08;0.98;;;26.00;51.90;;;;;;5017416;28;20145;-51
2021/09/19 10:42:06;;;;;;;0.43;0.30;;;26.00;51.80;;;;;;4984678;28;20136;-51
2021/09/19 10:44:34;;;;;;;0.38;0.38;;;26.00;51.80;;;;;;5016813;28;20059;-51
2021/09/19 10:47:06;;;;;;;0.22;0.22;;;26.00;51.80;;;;;;5011650;28;20509;-49
2021/09/19 10:49:35;;;;;;;2.05;0.30;;;26.00;51.70;;;;;;5008215;28;20057;-51
2021/09/19 10:52:09;;;;;;;0.52;0.52;;;26.10;51.70;;;;;;5004109;28;20050;-48
2021/09/19 10:54:48;;;;;;;1.92;0.75;;;26.10;51.60;;;;;;4989956;28;20135;-52
2021/09/19 10:57:17;;;;;;;0.30;0.30;;;26.10;51.50;;;;;;5021902;28;20057;-50
2021/09/19 11:00:24;;;;;;;2.25;0.70;;;26.10;51.50;;;;;;5019236;28;20100;-52
2021/09/19 11:03:07;;;;;;;0.43;0.43;;;26.20;51.50;;;;;;5011593;28;20054;-52
2021/09/19 11:05:37;;;;;;;0.20;0.20;;;26.10;51.50;;;;;;5048332;28;20109;-53
2021/09/19 11:08:16;;;;;;;0.45;0.30;;;26.20;51.50;;;;;;5057334;28;20135;-53
2021/09/19 11:11:20;;;;;;;1.50;0.30;;;26.20;51.30;;;;;;5057642;28;20051;-50
2021/09/19 11:13:55;;;;;;;1.35;0.63;;;26.20;51.30;;;;;;5057496;28;20619;-50
2021/09/19 11:16:40;;;;;;;0.20;0.17;;;26.20;51.30;;;;;;5057557;28;20064;-48
2021/09/19 11:19:22;;;;;;;1.23;0.40;;;26.20;51.20;;;;;;5050405;28;20037;-49
2021/09/19 11:21:50;;;;;;;0.70;0.20;;;26.30;51.20;;;;;;5063249;28;20072;-48
2021/09/19 11:24:23;;;;;;;0.40;0.20;;;26.30;51.20;;;;;;5066300;28;20048;-51
2021/09/19 11:26:54;;;;;;;0.32;0.28;;;26.30;51.20;;;;;;5066075;28;20520;-53
2021/09/19 11:29:24;;;;;;;0.80;0.30;;;26.30;51.10;;;;;;5061079;28;20055;-49
2021/09/19 11:31:53;;;;;;;0.20;0.20;;;26.30;51.00;;;;;;5058445;28;20045;-50
2021/09/19 11:34:24;;;;;;;1.27;0.77;;;26.30;51.00;;;;;;5052097;28;20148;-51
2021/09/19 11:36:53;;;;;;;1.00;0.30;;;26.40;51.00;;;;;;5063061;28;20896;-50
2021/09/19 11:39:22;;;;;;;0.50;0.30;;;26.40;51.00;;;;;;5065551;28;20281;-50
2021/09/19 11:41:51;;;;;;;0.30;0.20;;;26.40;50.90;;;;;;5063334;28;20063;-50
2021/09/19 11:44:20;;;;;;;0.90;0.47;;;26.40;50.80;;;;;;5059254;28;20044;-48
2021/09/19 11:46:50;;;;;;;0.35;0.35;;;26.40;50.80;;;;;;5059190;28;20529;-50
2021/09/19 11:49:20;;;;;;;1.45;0.30;;;26.40;50.70;;;;;;5051613;28;20095;-50
2021/09/19 11:51:49;;;;;;;1.15;0.35;;;26.50;50.80;;;;;;5063297;28;20036;-50
2021/09/19 11:54:19;;;;;;;1.05;0.28;;;26.50;50.80;;;;;;5065902;28;20531;-50
2021/09/19 11:56:50;;;;;;;1.35;0.40;;;26.50;50.70;;;;;;5052319;28;20509;-48
2021/09/19 11:59:18;;;;;;;0.65;0.40;;;26.50;50.70;;;;;;5048747;28;20072;-50
2021/09/19 12:01:47;;;;;;;0.40;0.40;;;26.50;50.70;;;;;;5053866;28;20140;-50
2021/09/19 12:04:16;;;;;;;1.63;0.28;;;26.60;50.70;;;;;;5050847;28;20456;-49
2021/09/19 12:06:45;;;;;;;0.77;0.40;;;26.60;50.80;;;;;;5063377;28;20044;-49
2021/09/19 12:09:19;;;;;;;0.75;0.50;;;26.60;50.70;;;;;;5065555;28;20045;-48
2021/09/19 12:11:50;;;;;;;0.25;0.20;;;26.60;50.60;;;;;;5064554;28;20051;-51
2021/09/19 12:14:20;;;;;;;0.38;0.22;;;26.60;50.60;;;;;;5060160;28;20477;-53
2021/09/19 12:17:05;;;;;;;1.70;0.22;;;26.70;50.70;;;;;;5055224;28;20040;-50
2021/09/19 12:19:35;;;;;;;0.20;0.20;;;26.70;50.60;;;;;;5060120;28;20163;-50
2021/09/19 12:22:04;;;;;;;0.50;0.20;;;26.70;50.70;;;;;;5060441;28;20029;-49
2021/09/19 12:24:36;;;;;;;0.20;0.20;;;26.70;50.60;;;;;;5033293;28;20040;-49
2021/09/19 12:27:15;;;;;;;0.38;0.38;;;26.70;50.60;;;;;;5065235;28;20101;-50
2021/09/19 12:29:57;;;;;;;1.00;0.35;;;26.80;50.60;;;;;;5061485;28;20072;-50
2021/09/19 12:32:34;;;;;;;0.80;0.40;;;26.80;50.50;;;;;;5059865;28;20052;-49
2021/09/19 12:35:03;;;;;;;1.38;0.38;;;26.80;50.50;;;;;;5060152;28;20045;-53
2021/09/19 12:37:35;;;;;;;0.35;0.35;;;26.80;50.50;;;;;;5060052;28;20044;-50
2021/09/19 12:40:11;;;;;;;0.50;0.40;;;26.80;50.50;;;;;;5060039;28;20045;-52
2021/09/19 12:42:39;;;;;;;;;;;26.80;50.40;;;;;;5033811;28;20037;-49
2021/09/19 12:45:10;;;;;;;0.57;0.32;;;26.80;50.50;;;;;;5065305;28;19924;-48
2021/09/19 12:47:39;;;;;;;0.93;0.32;;;26.80;50.50;;;;;;5062059;28;20072;-53
2021/09/19 12:50:10;;;;;;;0.60;0.57;;;26.80;50.40;;;;;;5056950;28;20060;-49
2021/09/19 12:52:39;;;;;;;0.70;0.30;;;26.80;50.30;;;;;;5054980;28;20041;-53
2021/09/19 12:55:17;;;;;;;0.65;0.47;;;26.80;50.30;;;;;;5048077;28;20036;-50
2021/09/19 12:57:45;;;;;;;0.60;0.40;;;26.90;50.20;;;;;;5062317;28;20045;-51
2021/09/19 13:00:16;;;;;;;0.80;0.45;;;26.90;50.20;;;;;;5060183;28;20382;-50